Time;durP1;ratioP1;P1;durP2;ratioP2;P2;SDS_P1;SDS_P2;PMS_P1;PMS_P2;Temp;Humidity;BMP_temperature;BMP_pressure;BME280_temperature;BME280_humidity;BME280_pressure;Samples;Min_cycle;Max_cycle;Signal;HPM_P1;HPM_P2
2024/03/06 00:01:19;;;;;;;16.20;12.65;;;6.90;99.90;;;;;;4900475;29;20199;-84
2024/03/06 00:03:46;;;;;;;16.02;13.35;;;7.00;99.90;;;;;;4900300;29;20290;-84
2024/03/06 00:06:12;;;;;;;17.92;13.52;;;7.00;99.90;;;;;;4904778;29;20224;-84
2024/03/06 00:08:39;;;;;;;16.85;13.02;;;7.00;99.90;;;;;;4899697;29;20214;-84
2024/03/06 00:11:06;;;;;;;17.83;13.80;;;7.00;99.90;;;;;;4899516;29;20203;-85
2024/03/06 00:13:34;;;;;;;16.85;13.45;;;7.00;99.90;;;;;;4898655;29;20206;-85
2024/03/06 00:16:02;;;;;;;16.73;13.98;;;6.90;99.90;;;;;;4899723;29;20561;-85
2024/03/06 00:18:29;;;;;;;16.83;13.88;;;6.80;99.90;;;;;;4896874;29;20208;-85
2024/03/06 00:20:56;;;;;;;17.80;13.90;;;6.80;99.90;;;;;;4890644;29;20799;-85
2024/03/06 00:23:22;;;;;;;20.05;15.02;;;6.60;99.90;;;;;;4898827;29;20575;-85
2024/03/06 00:25:49;;;;;;;56.05;36.60;;;6.60;99.90;;;;;;4882848;29;20222;-85
2024/03/06 00:28:16;;;;;;;66.60;40.42;;;6.80;99.90;;;;;;4899796;29;20204;-84
2024/03/06 00:30:42;;;;;;;71.03;41.50;;;6.80;99.90;;;;;;4899366;29;20203;-84
2024/03/06 00:33:10;;;;;;;63.75;37.22;;;6.80;99.90;;;;;;4898658;29;20202;-85
2024/03/06 00:35:37;;;;;;;33.50;20.48;;;6.90;99.90;;;;;;4899430;29;20218;-84
2024/03/06 00:38:05;;;;;;;23.38;16.60;;;6.90;99.90;;;;;;4899741;29;20290;-84
2024/03/06 00:40:33;;;;;;;18.63;14.15;;;6.90;99.90;;;;;;4899737;29;20302;-84
2024/03/06 00:43:00;;;;;;;16.58;12.93;;;6.90;99.90;;;;;;4895227;29;20203;-84
2024/03/06 00:45:26;;;;;;;17.10;13.65;;;6.80;99.90;;;;;;4900389;29;20227;-84
2024/03/06 00:47:53;;;;;;;19.30;13.98;;;6.80;99.90;;;;;;4908816;29;20215;-84
2024/03/06 00:50:22;;;;;;;16.75;13.32;;;6.80;99.90;;;;;;4899403;29;20191;-84
2024/03/06 00:52:49;;;;;;;16.70;13.73;;;7.00;99.90;;;;;;4899173;29;20207;-86
2024/03/06 00:55:16;;;;;;;16.00;12.95;;;7.00;99.90;;;;;;4896037;29;20203;-84
2024/03/06 00:57:43;;;;;;;17.05;12.88;;;7.00;99.90;;;;;;4897755;29;20741;-85
2024/03/06 01:00:11;;;;;;;16.95;12.13;;;6.90;99.90;;;;;;4892269;29;20212;-84
2024/03/06 01:02:38;;;;;;;15.70;12.25;;;6.90;99.90;;;;;;4880579;29;20204;-84
2024/03/06 01:05:06;;;;;;;15.57;12.25;;;7.00;99.90;;;;;;4863940;29;20204;-84
2024/03/06 01:07:35;;;;;;;14.88;12.23;;;7.00;99.90;;;;;;4893891;29;20206;-84
2024/03/06 01:10:02;;;;;;;13.25;11.10;;;7.00;99.90;;;;;;4898073;29;20203;-84
2024/03/06 01:12:29;;;;;;;15.30;11.48;;;7.00;99.90;;;;;;4898545;29;20221;-84
2024/03/06 01:14:57;;;;;;;14.05;11.55;;;7.00;99.90;;;;;;4892592;29;20255;-85
2024/03/06 01:17:24;;;;;;;15.55;11.98;;;6.90;99.90;;;;;;4878917;29;20203;-84
2024/03/06 01:19:50;;;;;;;13.75;11.10;;;6.80;99.90;;;;;;4897600;29;20210;-85
2024/03/06 01:22:17;;;;;;;14.48;12.02;;;6.80;99.90;;;;;;4894937;29;20233;-84
2024/03/06 01:24:48;;;;;;;16.13;12.60;;;6.70;99.90;;;;;;4895871;29;20210;-85
2024/03/06 01:27:16;;;;;;;15.93;12.95;;;6.70;99.90;;;;;;4880875;29;20266;-85
2024/03/06 01:29:43;;;;;;;15.85;12.77;;;6.70;99.90;;;;;;4892782;29;20214;-89
2024/03/06 01:32:11;;;;;;;17.08;13.07;;;6.60;99.90;;;;;;4892630;29;20263;-84
2024/03/06 01:34:37;;;;;;;17.95;13.43;;;6.70;99.90;;;;;;4891841;29;20235;-84
2024/03/06 01:37:04;;;;;;;17.15;13.45;;;6.70;99.90;;;;;;4896606;29;20207;-85
2024/03/06 01:39:31;;;;;;;15.88;13.43;;;6.70;99.90;;;;;;4894731;29;20569;-85
2024/03/06 01:41:59;;;;;;;18.58;14.45;;;6.70;99.90;;;;;;4894260;29;20207;-85
2024/03/06 01:44:26;;;;;;;18.23;14.48;;;6.70;99.90;;;;;;4893150;29;20226;-85
2024/03/06 01:46:53;;;;;;;19.70;14.68;;;6.60;99.90;;;;;;4889309;29;20227;-84
2024/03/06 01:49:20;;;;;;;18.85;14.75;;;6.60;99.90;;;;;;4897262;29;20218;-84
2024/03/06 01:51:52;;;;;;;20.77;14.70;;;6.60;99.90;;;;;;4897413;29;20203;-84
2024/03/06 01:54:19;;;;;;;19.40;14.48;;;6.70;99.90;;;;;;4892908;29;20200;-84
2024/03/06 01:56:47;;;;;;;20.27;14.80;;;6.70;99.90;;;;;;4897272;29;20247;-85
2024/03/06 01:59:17;;;;;;;21.58;16.25;;;6.70;99.90;;;;;;4896214;29;20207;-84
2024/03/06 02:01:44;;;;;;;21.55;16.30;;;6.60;99.90;;;;;;4897227;29;20230;-84
2024/03/06 02:04:13;;;;;;;21.67;16.02;;;6.60;99.90;;;;;;4894185;29;20210;-85
2024/03/06 02:06:40;;;;;;;22.63;16.73;;;6.70;99.90;;;;;;4896093;29;20241;-84
2024/03/06 02:09:07;;;;;;;22.70;16.38;;;6.70;99.90;;;;;;4897939;29;20210;-85
2024/03/06 02:11:34;;;;;;;22.60;16.42;;;6.70;99.90;;;;;;4892703;29;20577;-85
2024/03/06 02:14:01;;;;;;;22.02;16.10;;;6.70;99.90;;;;;;4894089;29;20210;-84
2024/03/06 02:16:30;;;;;;;22.67;15.90;;;6.70;99.90;;;;;;4901259;29;20207;-84
2024/03/06 02:18:58;;;;;;;23.77;16.95;;;6.70;99.90;;;;;;4901874;29;20203;-84
2024/03/06 02:21:27;;;;;;;23.48;15.93;;;6.80;99.90;;;;;;4901369;29;20696;-84
2024/03/06 02:23:54;;;;;;;23.35;16.27;;;6.70;99.90;;;;;;4902091;29;20206;-84
2024/03/06 02:26:21;;;;;;;22.80;15.90;;;6.80;99.90;;;;;;4901675;29;20593;-84
2024/03/06 02:28:49;;;;;;;23.70;16.15;;;6.80;99.90;;;;;;4900302;29;20214;-85
2024/03/06 02:31:16;;;;;;;23.30;16.15;;;6.70;99.90;;;;;;4902585;29;20546;-85
2024/03/06 02:33:44;;;;;;;23.40;16.10;;;6.80;99.90;;;;;;4881013;29;20215;-85
2024/03/06 02:36:11;;;;;;;22.55;15.60;;;6.90;99.90;;;;;;4894477;29;20207;-84
2024/03/06 02:38:39;;;;;;;26.17;15.93;;;6.80;99.90;;;;;;4899164;29;20222;-87
2024/03/06 02:41:06;;;;;;;23.55;15.07;;;6.80;99.90;;;;;;4896872;29;20199;-84
2024/03/06 02:43:33;;;;;;;23.63;15.52;;;6.80;99.90;;;;;;4895159;29;20199;-84
2024/03/06 02:46:00;;;;;;;22.05;14.75;;;6.80;99.90;;;;;;4897993;29;20227;-85
2024/03/06 02:48:27;;;;;;;9.77;7.00;;;6.80;99.90;;;;;;4897552;29;20199;-85
2024/03/06 02:50:54;;;;;;;8.20;6.22;;;6.80;99.90;;;;;;4894005;29;20211;-84
2024/03/06 02:53:21;;;;;;;5.63;4.60;;;6.60;99.90;;;;;;4900951;29;20690;-84
2024/03/06 02:55:49;;;;;;;6.07;3.88;;;6.50;99.90;;;;;;4881787;29;20207;-86
2024/03/06 02:58:17;;;;;;;6.47;4.03;;;6.40;99.90;;;;;;4880602;29;20235;-85
2024/03/06 03:00:44;;;;;;;5.00;3.70;;;6.20;99.90;;;;;;4896789;29;20212;-88
2024/03/06 03:03:12;;;;;;;5.97;4.63;;;6.20;99.90;;;;;;4892538;29;20214;-85
2024/03/06 03:05:38;;;;;;;4.10;3.70;;;6.20;99.90;;;;;;4880360;29;20206;-86
2024/03/06 03:08:07;;;;;;;4.63;3.27;;;6.20;99.90;;;;;;4892553;29;20232;-85
2024/03/06 03:10:34;;;;;;;3.30;2.93;;;6.00;99.90;;;;;;4892684;29;20827;-84
2024/03/06 03:13:04;;;;;;;3.57;2.70;;;5.90;99.90;;;;;;4899251;29;20203;-85
2024/03/06 03:15:32;;;;;;;2.77;2.53;;;6.00;99.90;;;;;;4897325;29;20568;-85
2024/03/06 03:17:59;;;;;;;2.70;2.50;;;6.00;99.90;;;;;;4896278;29;20207;-85
2024/03/06 03:20:26;;;;;;;2.87;2.30;;;5.90;99.90;;;;;;4892324;29;20196;-87
2024/03/06 03:22:53;;;;;;;2.17;2.00;;;5.90;99.90;;;;;;4897651;29;20218;-84
2024/03/06 03:25:21;;;;;;;2.20;2.00;;;5.80;99.90;;;;;;4899412;29;20651;-85
2024/03/06 03:27:48;;;;;;;2.37;2.17;;;5.80;99.90;;;;;;4895613;29;20295;-86
2024/03/06 03:30:20;;;;;;;2.40;2.20;;;5.70;99.90;;;;;;4897976;29;20195;-85
2024/03/06 03:32:47;;;;;;;5.30;2.70;;;5.40;99.90;;;;;;4898061;29;20211;-85
2024/03/06 03:35:14;;;;;;;2.83;2.00;;;5.60;99.90;;;;;;4878221;29;20203;-85
2024/03/06 03:37:41;;;;;;;2.10;1.90;;;5.70;99.90;;;;;;4895981;29;20203;-86
2024/03/06 03:40:11;;;;;;;2.40;2.20;;;5.70;99.90;;;;;;4894095;29;20251;-86
2024/03/06 03:42:40;;;;;;;2.20;2.00;;;5.50;99.90;;;;;;4897770;29;20290;-86
2024/03/06 03:45:07;;;;;;;2.20;2.00;;;5.30;99.90;;;;;;4889563;29;20210;-86
2024/03/06 03:47:35;;;;;;;2.07;1.93;;;5.40;99.90;;;;;;4894850;29;20224;-84
2024/03/06 03:50:03;;;;;;;2.03;1.83;;;5.30;99.90;;;;;;4897082;29;20206;-86
2024/03/06 03:52:31;;;;;;;3.03;2.23;;;5.50;99.90;;;;;;4897304;29;20212;-86
2024/03/06 03:54:58;;;;;;;2.00;1.83;;;5.50;99.90;;;;;;4899158;29;20203;-85
2024/03/06 03:57:24;;;;;;;2.20;2.00;;;5.70;99.90;;;;;;4896074;29;20223;-85
2024/03/06 03:59:52;;;;;;;2.30;2.10;;;5.90;99.90;;;;;;4891497;29;20701;-84
2024/03/06 04:02:19;;;;;;;2.37;2.17;;;5.90;99.90;;;;;;4895519;29;20234;-86
2024/03/06 04:04:47;;;;;;;2.75;2.20;;;5.80;99.90;;;;;;4877117;29;20199;-85
2024/03/06 04:07:16;;;;;;;2.30;2.10;;;5.70;99.90;;;;;;4899611;29;20220;-87
2024/03/06 04:09:42;;;;;;;2.53;2.33;;;5.50;99.90;;;;;;4877235;29;20225;-84
2024/03/06 04:12:09;;;;;;;2.50;2.20;;;5.80;99.90;;;;;;4892071;29;20207;-86
2024/03/06 04:14:36;;;;;;;2.43;2.23;;;5.60;99.90;;;;;;4895507;29;20200;-85
2024/03/06 04:17:03;;;;;;;2.43;2.23;;;5.60;99.90;;;;;;4894984;29;20224;-84
2024/03/06 04:19:31;;;;;;;2.50;2.10;;;5.70;99.90;;;;;;4879272;29;20209;-84
2024/03/06 04:22:00;;;;;;;2.40;2.20;;;5.80;99.90;;;;;;4897026;29;20202;-86
2024/03/06 04:24:27;;;;;;;2.20;2.00;;;5.90;99.90;;;;;;4894485;29;20199;-85
2024/03/06 04:26:54;;;;;;;2.53;2.33;;;5.90;99.90;;;;;;4894803;29;20228;-84
2024/03/06 04:29:21;;;;;;;3.00;2.10;;;6.00;99.90;;;;;;4897241;29;20200;-86
2024/03/06 04:31:48;;;;;;;2.40;2.10;;;6.20;99.90;;;;;;4895670;29;20218;-85
2024/03/06 04:34:15;;;;;;;2.17;1.97;;;6.10;99.90;;;;;;4891710;29;20211;-85
2024/03/06 04:36:41;;;;;;;2.33;1.93;;;5.90;99.90;;;;;;4879320;29;20584;-85
2024/03/06 04:39:10;;;;;;;2.67;2.43;;;5.60;99.90;;;;;;4891028;29;20207;-84
2024/03/06 04:41:37;;;;;;;3.00;2.30;;;5.50;99.90;;;;;;4893167;29;20214;-85
2024/03/06 04:44:04;;;;;;;2.17;2.00;;;5.50;99.90;;;;;;4894522;29;20199;-85
2024/03/06 04:46:30;;;;;;;2.20;2.00;;;5.40;99.90;;;;;;4896110;29;20211;-85
2024/03/06 04:48:57;;;;;;;2.53;2.33;;;5.40;99.90;;;;;;4895095;29;20216;-85
2024/03/06 04:51:24;;;;;;;3.37;2.43;;;5.30;99.90;;;;;;4894075;29;20206;-85
2024/03/06 04:53:51;;;;;;;2.30;2.10;;;5.20;99.90;;;;;;4893359;29;20200;-85
2024/03/06 04:56:20;;;;;;;2.50;2.30;;;5.10;99.90;;;;;;4891800;29;20230;-85
2024/03/06 04:58:47;;;;;;;4.57;2.47;;;5.20;99.90;;;;;;4895336;29;21510;-86
2024/03/06 05:01:14;;;;;;;2.40;2.20;;;5.20;99.90;;;;;;4880631;29;20211;-86
2024/03/06 05:03:41;;;;;;;3.03;2.40;;;5.30;99.90;;;;;;4877904;29;20203;-89
2024/03/06 05:06:08;;;;;;;2.50;2.30;;;5.40;99.90;;;;;;4879546;29;20208;-85
2024/03/06 05:08:35;;;;;;;2.20;2.00;;;5.40;99.90;;;;;;4893889;29;20227;-85
2024/03/06 05:11:03;;;;;;;2.30;2.10;;;5.40;99.90;;;;;;4894773;29;20218;-86
2024/03/06 05:13:31;;;;;;;2.63;2.23;;;5.50;99.90;;;;;;4895621;29;20203;-86
2024/03/06 05:15:57;;;;;;;3.67;2.47;;;5.20;99.90;;;;;;4891983;29;20207;-84
2024/03/06 05:18:24;;;;;;;2.50;2.30;;;5.20;99.90;;;;;;4896504;29;20215;-84
2024/03/06 05:20:51;;;;;;;3.23;2.37;;;5.00;99.90;;;;;;4895815;29;20217;-86
2024/03/06 05:23:18;;;;;;;4.10;2.23;;;5.10;99.90;;;;;;4892548;29;20210;-84
2024/03/06 05:25:45;;;;;;;3.17;2.20;;;5.30;99.90;;;;;;4894643;29;20218;-84
2024/03/06 05:28:12;;;;;;;2.13;1.93;;;5.20;99.90;;;;;;4901417;29;20640;-85
2024/03/06 05:30:40;;;;;;;2.40;2.20;;;5.00;99.90;;;;;;4895149;29;20199;-85
2024/03/06 05:33:07;;;;;;;2.53;2.33;;;5.20;99.90;;;;;;4900335;29;20690;-87
2024/03/06 05:35:33;;;;;;;2.60;2.00;;;5.20;99.90;;;;;;4885126;29;20204;-84
2024/03/06 05:38:00;;;;;;;2.30;2.10;;;5.40;99.90;;;;;;4894758;29;20219;-85
2024/03/06 05:40:27;;;;;;;2.40;2.20;;;5.50;99.90;;;;;;4894068;29;20206;-84
2024/03/06 05:42:54;;;;;;;2.27;2.07;;;5.40;99.90;;;;;;4891858;29;20558;-86
2024/03/06 05:45:21;;;;;;;2.20;2.00;;;5.40;99.90;;;;;;4893789;29;20199;-86
2024/03/06 05:47:49;;;;;;;2.40;2.20;;;5.10;99.90;;;;;;4893198;29;20234;-87
2024/03/06 05:50:17;;;;;;;2.37;2.17;;;5.00;99.90;;;;;;4892426;29;20200;-84
2024/03/06 05:52:43;;;;;;;2.10;1.90;;;5.00;99.90;;;;;;4897782;29;20222;-88
2024/03/06 05:55:10;;;;;;;1.80;1.70;;;5.10;99.90;;;;;;4894003;29;20199;-87
2024/03/06 05:57:37;;;;;;;2.23;2.00;;;5.10;99.90;;;;;;4886704;29;20247;-83
2024/03/06 06:00:10;;;;;;;1.90;1.80;;;5.20;99.90;;;;;;4894511;29;20203;-83
2024/03/06 06:02:37;;;;;;;1.90;1.80;;;5.40;99.90;;;;;;4896078;29;21015;-83
2024/03/06 06:05:08;;;;;;;1.90;1.80;;;5.30;99.90;;;;;;4896098;29;20204;-84
2024/03/06 06:07:34;;;;;;;2.03;1.80;;;5.20;99.90;;;;;;4894124;29;20219;-83
2024/03/06 06:10:01;;;;;;;2.30;2.10;;;5.10;99.90;;;;;;4894761;29;20286;-83
2024/03/06 06:13:12;;;;;;;2.20;2.00;;;5.00;99.90;;;;;;4897666;29;20703;-88
2024/03/06 06:15:39;;;;;;;2.60;2.40;;;4.90;99.90;;;;;;4892473;29;20267;-85
2024/03/06 06:18:06;;;;;;;1.90;1.80;;;4.90;99.90;;;;;;4894689;29;20210;-84
2024/03/06 06:20:34;;;;;;;2.47;2.27;;;4.80;99.90;;;;;;4893912;29;20565;-85
2024/03/06 06:23:02;;;;;;;2.20;2.00;;;4.80;99.90;;;;;;4893650;29;20204;-84
2024/03/06 06:25:28;;;;;;;2.20;2.00;;;4.90;99.90;;;;;;4895824;29;20247;-83
2024/03/06 06:27:55;;;;;;;2.10;1.90;;;4.80;99.90;;;;;;4896633;29;20265;-85
2024/03/06 06:30:23;;;;;;;3.13;2.30;;;4.90;99.90;;;;;;4896185;29;20219;-85
2024/03/06 06:32:50;;;;;;;2.37;2.00;;;5.00;99.90;;;;;;4896581;29;20208;-85
2024/03/06 06:35:17;;;;;;;1.97;1.87;;;5.00;99.90;;;;;;4895148;29;20206;-86
2024/03/06 06:37:46;;;;;;;3.70;2.10;;;5.00;99.90;;;;;;4895259;29;20219;-85
2024/03/06 06:40:13;;;;;;;2.20;2.00;;;5.10;99.90;;;;;;4895313;29;20199;-85
2024/03/06 06:42:47;;;;;;;2.30;2.10;;;4.90;99.90;;;;;;4895688;29;20822;-85
2024/03/06 06:45:14;;;;;;;2.30;2.10;;;4.90;99.90;;;;;;4893829;29;20223;-86
2024/03/06 06:47:40;;;;;;;2.33;2.13;;;4.90;99.90;;;;;;4895262;29;20231;-85
2024/03/06 06:50:09;;;;;;;2.20;2.00;;;4.70;99.90;;;;;;4891481;29;20211;-87
2024/03/06 06:52:35;;;;;;;2.50;2.23;;;4.90;99.90;;;;;;4878072;29;20204;-85
2024/03/06 06:55:05;;;;;;;2.40;2.20;;;4.80;99.90;;;;;;4900301;29;20212;-85
2024/03/06 06:57:32;;;;;;;4.13;2.13;;;4.80;99.90;;;;;;4897717;29;20219;-86
2024/03/06 06:59:59;;;;;;;2.50;2.30;;;4.80;99.90;;;;;;4894945;29;20218;-86
2024/03/06 07:02:27;;;;;;;4.53;2.67;;;4.90;99.90;;;;;;4900974;29;20210;-86
2024/03/06 07:04:54;;;;;;;2.70;2.50;;;4.90;99.90;;;;;;4900197;29;20892;-87
2024/03/06 07:07:21;;;;;;;3.60;2.57;;;5.00;99.90;;;;;;4898492;29;20226;-87
2024/03/06 07:09:48;;;;;;;2.40;2.07;;;5.20;99.90;;;;;;4896955;29;20213;-86
2024/03/06 07:12:17;;;;;;;2.80;2.30;;;5.20;99.90;;;;;;4896861;29;20656;-86
2024/03/06 07:14:44;;;;;;;3.13;2.10;;;5.10;99.90;;;;;;4898445;29;20221;-86
2024/03/06 07:17:10;;;;;;;2.40;2.17;;;4.90;99.90;;;;;;4896039;29;20200;-86
2024/03/06 07:19:37;;;;;;;2.43;2.20;;;5.00;99.90;;;;;;4893073;29;20218;-87
2024/03/06 07:22:04;;;;;;;2.00;1.90;;;5.00;99.90;;;;;;4885397;29;20206;-89
2024/03/06 07:24:31;;;;;;;2.40;2.20;;;5.10;99.90;;;;;;4894275;29;20207;-91
2024/03/06 07:26:58;;;;;;;3.10;2.00;;;4.90;99.90;;;;;;4878426;29;20700;-86
2024/03/06 07:29:26;;;;;;;2.77;2.20;;;4.80;99.90;;;;;;4898851;29;20231;-86
2024/03/06 07:31:53;;;;;;;2.20;2.00;;;4.90;99.90;;;;;;4897585;29;20203;-86
2024/03/06 07:34:21;;;;;;;2.73;2.10;;;4.90;99.90;;;;;;4899998;29;20596;-87
2024/03/06 07:36:48;;;;;;;2.63;2.33;;;5.10;99.90;;;;;;4900111;29;20215;-87
2024/03/06 07:39:16;;;;;;;2.20;2.00;;;4.90;99.90;;;;;;4901743;29;20207;-88
2024/03/06 07:41:43;;;;;;;3.47;2.10;;;4.70;99.90;;;;;;4895864;29;20208;-86
2024/03/06 07:44:10;;;;;;;3.43;2.20;;;4.60;99.90;;;;;;4892196;29;20203;-86
2024/03/06 07:46:39;;;;;;;2.30;2.10;;;4.80;99.90;;;;;;4900728;29;20207;-93
2024/03/06 07:49:06;;;;;;;3.87;2.10;;;4.80;99.90;;;;;;4879332;29;20228;-87
2024/03/06 07:51:33;;;;;;;2.17;1.97;;;4.80;99.90;;;;;;4890666;29;20200;-87
2024/03/06 07:54:00;;;;;;;2.47;2.07;;;4.80;99.90;;;;;;4895571;29;20206;-88
2024/03/06 07:56:28;;;;;;;2.07;1.87;;;5.10;99.90;;;;;;4895966;29;20219;-92
2024/03/06 07:58:55;;;;;;;2.67;2.47;;;5.30;99.90;;;;;;4895189;29;20580;-91
2024/03/06 08:01:23;;;;;;;2.77;2.50;;;5.20;99.90;;;;;;4900436;29;20195;-91
2024/03/06 08:03:54;;;;;;;3.60;2.60;;;5.20;99.90;;;;;;4897158;29;20203;-90
2024/03/06 08:06:20;;;;;;;2.27;2.03;;;5.10;99.90;;;;;;4881513;29;20199;-85
2024/03/06 08:08:47;;;;;;;2.40;1.90;;;5.00;99.90;;;;;;4900485;29;20226;-85
2024/03/06 08:11:14;;;;;;;2.40;2.20;;;5.10;99.90;;;;;;4894867;29;20678;-87
2024/03/06 08:13:41;;;;;;;3.50;1.90;;;5.30;99.90;;;;;;4897296;29;20559;-85
2024/03/06 08:16:09;;;;;;;2.33;2.13;;;5.30;99.90;;;;;;4896075;29;20207;-85
2024/03/06 08:18:37;;;;;;;2.20;2.00;;;5.20;99.90;;;;;;4896310;29;20592;-85
2024/03/06 08:21:06;;;;;;;2.20;2.00;;;5.20;99.90;;;;;;4895107;29;20207;-89
2024/03/06 08:23:33;;;;;;;2.40;2.20;;;5.20;99.90;;;;;;4893549;29;20225;-90
2024/03/06 08:26:00;;;;;;;2.83;2.40;;;5.40;99.90;;;;;;4898441;29;20682;-88
2024/03/06 08:28:28;;;;;;;2.60;2.40;;;5.50;99.90;;;;;;4896726;29;20230;-89
2024/03/06 08:30:55;;;;;;;2.60;2.40;;;5.50;99.90;;;;;;4895807;29;20787;-89
2024/03/06 08:33:22;;;;;;;2.93;2.30;;;5.30;99.90;;;;;;4896910;29;20196;-89
2024/03/06 08:35:49;;;;;;;2.47;2.27;;;5.30;99.90;;;;;;4891311;29;20207;-91
2024/03/06 08:38:17;;;;;;;3.67;2.47;;;5.50;99.90;;;;;;4896927;29;20559;-90
2024/03/06 08:40:45;;;;;;;5.93;2.40;;;5.50;99.90;;;;;;4895970;29;20236;-89
2024/03/06 08:43:15;;;;;;;2.00;1.73;;;5.50;99.90;;;;;;4879599;29;20210;-89
2024/03/06 08:45:42;;;;;;;2.13;1.83;;;5.60;99.90;;;;;;4897632;29;20573;-89
2024/03/06 08:48:09;;;;;;;2.20;1.93;;;5.70;99.90;;;;;;4895775;29;20588;-89
2024/03/06 08:50:35;;;;;;;2.53;2.10;;;5.50;99.90;;;;;;4893093;29;20589;-89
2024/03/06 08:53:03;;;;;;;2.17;1.97;;;5.70;99.90;;;;;;4876861;29;20207;-89
2024/03/06 08:55:31;;;;;;;2.43;2.20;;;5.70;99.90;;;;;;4897256;29;20259;-89
2024/03/06 08:57:58;;;;;;;2.10;1.90;;;5.80;99.90;;;;;;4887317;29;20227;-89
2024/03/06 09:00:26;;;;;;;1.97;1.83;;;5.90;99.90;;;;;;4892672;29;20306;-89
2024/03/06 09:02:53;;;;;;;2.30;2.10;;;5.70;99.90;;;;;;4879503;29;20222;-89
2024/03/06 09:05:21;;;;;;;2.20;2.00;;;5.40;99.90;;;;;;4895369;29;20279;-90
2024/03/06 09:07:48;;;;;;;2.17;1.97;;;5.60;99.90;;;;;;4896087;29;20278;-88
2024/03/06 09:10:15;;;;;;;2.97;2.00;;;5.60;99.90;;;;;;4896792;29;20207;-89
2024/03/06 09:12:44;;;;;;;2.27;2.07;;;5.70;99.90;;;;;;4896366;29;20199;-88
2024/03/06 09:15:11;;;;;;;2.20;2.00;;;5.60;99.90;;;;;;4891647;29;20287;-88
2024/03/06 09:17:38;;;;;;;2.20;2.00;;;5.50;99.90;;;;;;4892970;29;20214;-88
2024/03/06 09:20:09;;;;;;;2.20;2.00;;;5.50;99.90;;;;;;4891300;29;20238;-88
2024/03/06 09:22:37;;;;;;;3.43;2.00;;;5.50;99.90;;;;;;4896764;29;20196;-88
2024/03/06 09:25:06;;;;;;;2.10;1.70;;;5.40;99.90;;;;;;4880309;29;20203;-90
2024/03/06 09:27:32;;;;;;;1.80;1.70;;;5.60;99.90;;;;;;4895691;29;20211;-88
2024/03/06 09:30:01;;;;;;;2.30;2.10;;;5.50;99.90;;;;;;4880258;29;20234;-88
2024/03/06 09:32:28;;;;;;;2.13;1.93;;;5.60;99.90;;;;;;4897050;29;20265;-88
2024/03/06 09:34:54;;;;;;;2.90;2.10;;;5.70;99.90;;;;;;4882112;29;20210;-88
2024/03/06 09:37:21;;;;;;;1.90;1.80;;;5.90;99.90;;;;;;4898125;29;20597;-88
2024/03/06 09:39:48;;;;;;;2.37;1.80;;;6.10;99.90;;;;;;4891262;29;20681;-89
2024/03/06 09:42:16;;;;;;;1.77;1.67;;;6.10;99.90;;;;;;4879001;29;20681;-89
2024/03/06 09:44:43;;;;;;;2.00;1.90;;;6.10;99.90;;;;;;4887910;29;20199;-89
2024/03/06 09:47:14;;;;;;;3.63;1.90;;;6.10;99.90;;;;;;4866460;29;20204;-90
2024/03/06 09:49:41;;;;;;;2.47;1.88;;;6.10;99.90;;;;;;4894904;29;20766;-90
2024/03/06 09:52:10;;;;;;;1.55;1.45;;;6.00;99.90;;;;;;4883715;29;20210;-89
2024/03/06 09:54:38;;;;;;;1.80;1.70;;;5.90;99.90;;;;;;4892832;29;20219;-89
2024/03/06 09:57:05;;;;;;;2.35;1.92;;;6.00;99.90;;;;;;4896845;29;20239;-89
2024/03/06 09:59:32;;;;;;;2.47;2.10;;;6.10;99.90;;;;;;4898580;29;20221;-89
2024/03/06 10:02:02;;;;;;;2.45;2.00;;;6.10;99.90;;;;;;4895419;29;20203;-89
2024/03/06 10:04:37;;;;;;;2.28;2.05;;;5.80;99.90;;;;;;4894810;29;20282;-89
2024/03/06 10:07:04;;;;;;;1.90;1.80;;;5.90;99.90;;;;;;4864678;29;21028;-89
2024/03/06 10:09:33;;;;;;;2.58;1.92;;;5.90;99.90;;;;;;4872564;29;20223;-89
2024/03/06 10:12:00;;;;;;;2.47;2.28;;;5.90;99.90;;;;;;4890854;29;20975;-89
2024/03/06 10:14:28;;;;;;;2.30;1.98;;;5.90;99.90;;;;;;4893565;29;20659;-89
2024/03/06 10:16:57;;;;;;;2.05;1.90;;;5.80;99.90;;;;;;4877866;29;20290;-89
2024/03/06 10:19:25;;;;;;;2.17;1.80;;;6.00;99.90;;;;;;4894186;29;20215;-89
2024/03/06 10:21:53;;;;;;;1.83;1.73;;;5.90;99.90;;;;;;4895343;29;20667;-90
2024/03/06 10:24:21;;;;;;;2.15;1.77;;;6.00;99.90;;;;;;4894225;29;20655;-89
2024/03/06 10:26:48;;;;;;;1.70;1.60;;;6.10;99.90;;;;;;4893417;29;20718;-88
2024/03/06 10:29:19;;;;;;;1.98;1.70;;;5.90;99.90;;;;;;4881218;29;20223;-89
2024/03/06 10:31:50;;;;;;;2.20;2.00;;;6.00;99.90;;;;;;4898578;29;20207;-89
2024/03/06 10:34:17;;;;;;;1.85;1.70;;;6.00;99.90;;;;;;4894592;29;20573;-89
2024/03/06 10:36:45;;;;;;;2.10;1.90;;;6.00;99.90;;;;;;4893770;29;20307;-89
2024/03/06 10:39:17;;;;;;;2.33;2.13;;;6.10;99.90;;;;;;4897053;29;20624;-89
2024/03/06 10:41:44;;;;;;;1.88;1.77;;;6.20;99.90;;;;;;4897260;29;20207;-89
2024/03/06 10:44:18;;;;;;;2.17;1.70;;;6.10;99.90;;;;;;4887371;29;20207;-89
2024/03/06 10:46:48;;;;;;;2.03;1.83;;;6.40;99.90;;;;;;4898959;29;20202;-89
2024/03/06 10:49:15;;;;;;;2.35;2.15;;;6.60;99.90;;;;;;4881993;29;20227;-89
2024/03/06 10:51:44;;;;;;;2.17;2.00;;;6.70;99.90;;;;;;4885581;29;20220;-89
2024/03/06 10:54:16;;;;;;;4.38;2.28;;;6.70;99.90;;;;;;4887886;29;20203;-89
2024/03/06 10:56:43;;;;;;;2.17;1.98;;;6.60;99.90;;;;;;4899829;29;20728;-89
2024/03/06 10:59:13;;;;;;;2.47;2.20;;;6.60;99.90;;;;;;4898597;29;20214;-89
2024/03/06 11:01:43;;;;;;;2.47;2.17;;;6.70;99.90;;;;;;4899262;29;20607;-89
2024/03/06 11:04:12;;;;;;;2.60;2.35;;;6.80;99.90;;;;;;4898614;29;20272;-89
2024/03/06 11:06:39;;;;;;;3.42;2.30;;;6.80;99.90;;;;;;4890872;29;20203;-89
2024/03/06 11:09:11;;;;;;;2.88;2.58;;;6.70;99.70;;;;;;4897357;29;20237;-89
2024/03/06 11:11:49;;;;;;;3.33;2.55;;;6.80;99.90;;;;;;4896137;29;20677;-89
2024/03/06 11:14:16;;;;;;;3.47;2.70;;;6.60;99.90;;;;;;4884101;29;20239;-89
2024/03/06 11:17:01;;;;;;;2.95;2.58;;;6.50;99.90;;;;;;4895951;29;20217;-89
2024/03/06 11:19:29;;;;;;;2.88;2.67;;;6.40;99.90;;;;;;4908221;29;20199;-89
2024/03/06 11:21:56;;;;;;;3.70;2.50;;;6.60;99.90;;;;;;4857641;29;20215;-89
2024/03/06 11:24:24;;;;;;;3.63;2.90;;;6.70;99.90;;;;;;4899270;29;20203;-89
2024/03/06 11:26:58;;;;;;;3.08;2.78;;;6.60;99.90;;;;;;4884480;29;20275;-89
2024/03/06 11:29:28;;;;;;;3.10;2.45;;;6.60;99.90;;;;;;4876012;29;20223;-88
2024/03/06 11:32:07;;;;;;;3.45;2.70;;;6.80;99.90;;;;;;4894714;29;20210;-90
2024/03/06 11:34:34;;;;;;;5.05;3.35;;;7.00;99.90;;;;;;4899531;29;20199;-88
2024/03/06 11:37:09;;;;;;;4.35;3.53;;;7.00;99.90;;;;;;4890529;29;20214;-89
2024/03/06 11:39:37;;;;;;;6.05;3.60;;;7.10;99.90;;;;;;4893074;29;20210;-89
2024/03/06 11:42:08;;;;;;;3.63;3.13;;;7.00;99.90;;;;;;4897737;29;20207;-89
2024/03/06 11:44:35;;;;;;;4.55;3.78;;;7.10;99.90;;;;;;4881798;29;20207;-88
2024/03/06 11:47:04;;;;;;;3.72;3.30;;;7.10;99.90;;;;;;4897285;29;20213;-89
2024/03/06 11:49:33;;;;;;;4.60;3.65;;;7.00;99.90;;;;;;4896605;29;20234;-88
2024/03/06 11:52:03;;;;;;;5.25;3.97;;;7.00;99.90;;;;;;4895440;29;20629;-89
2024/03/06 11:54:31;;;;;;;4.15;3.58;;;7.10;99.90;;;;;;4897780;29;20207;-89
2024/03/06 11:56:59;;;;;;;4.15;3.67;;;7.00;99.90;;;;;;4896318;29;20226;-89
2024/03/06 11:59:28;;;;;;;4.25;3.20;;;6.80;99.90;;;;;;4894361;29;20217;-89
2024/03/06 12:01:57;;;;;;;3.92;3.35;;;6.80;99.90;;;;;;4895136;29;20204;-89
2024/03/06 12:04:25;;;;;;;4.15;3.38;;;6.70;99.90;;;;;;4885744;29;20208;-89
2024/03/06 12:06:52;;;;;;;3.92;3.42;;;6.70;99.90;;;;;;4898268;29;20218;-88
2024/03/06 12:09:19;;;;;;;4.35;3.33;;;6.50;99.90;;;;;;4897235;29;20911;-88
2024/03/06 12:11:46;;;;;;;3.38;3.08;;;6.40;99.90;;;;;;4901455;29;20341;-89
2024/03/06 12:14:18;;;;;;;3.92;3.50;;;6.50;99.90;;;;;;4898778;29;20215;-88
2024/03/06 12:16:56;;;;;;;3.35;3.00;;;6.60;99.90;;;;;;4895258;29;20207;-89
2024/03/06 12:19:24;;;;;;;3.70;3.30;;;6.60;99.90;;;;;;4876992;29;20255;-89
2024/03/06 12:21:51;;;;;;;4.68;3.50;;;6.50;99.90;;;;;;4894883;29;20263;-89
2024/03/06 12:24:19;;;;;;;3.97;3.58;;;6.40;99.90;;;;;;4884485;29;20226;-89
2024/03/06 12:26:48;;;;;;;5.22;3.20;;;6.50;99.90;;;;;;4896716;29;20259;-89
2024/03/06 12:29:19;;;;;;;3.20;2.90;;;6.60;99.90;;;;;;4882810;29;20223;-90
2024/03/06 12:31:48;;;;;;;4.07;3.30;;;6.50;99.90;;;;;;4901769;29;20231;-90
2024/03/06 12:34:16;;;;;;;3.88;3.25;;;6.50;99.90;;;;;;4895247;29;20594;-89
2024/03/06 12:36:43;;;;;;;4.15;3.47;;;6.60;99.90;;;;;;4895552;29;20609;-89
2024/03/06 12:39:12;;;;;;;4.25;3.33;;;6.70;99.90;;;;;;4896436;29;20210;-89
2024/03/06 12:41:39;;;;;;;3.90;3.50;;;6.70;99.90;;;;;;4897202;29;20207;-89
2024/03/06 12:44:07;;;;;;;3.72;3.15;;;6.70;99.90;;;;;;4899775;29;20227;-85
2024/03/06 12:46:34;;;;;;;4.60;3.35;;;6.60;99.90;;;;;;4899756;29;20214;-87
2024/03/06 12:49:05;;;;;;;4.70;3.38;;;6.60;99.90;;;;;;4899146;29;20665;-89
2024/03/06 12:51:32;;;;;;;3.88;3.10;;;6.60;99.90;;;;;;4899855;29;20195;-90
2024/03/06 13:48:46;;;;;;;3.70;2.70;;;7.20;99.30;;;;;;4907225;29;20427;-85
2024/03/06 13:51:13;;;;;;;3.40;2.63;;;7.40;98.70;;;;;;4917440;29;20222;-84